Time;durP1;ratioP1;P1;durP2;ratioP2;P2;SDS_P1;SDS_P2;PMS_P1;PMS_P2;Temp;Humidity;BMP_temperature;BMP_pressure;BME280_temperature;BME280_humidity;BME280_pressure;Samples;Min_cycle;Max_cycle;Signal;HPM_P1;HPM_P2
2021/08/23 00:02:07;;;;;;;;;;;21.10;71.30;;;;;;5032172;28;1130;-72
2021/08/23 00:04:32;;;;;;;;;;;21.00;71.20;;;;;;5031991;28;1220;-72
2021/08/23 00:06:58;;;;;;;;;;;21.00;71.30;;;;;;5032216;28;1248;-73
2021/08/23 00:09:23;;;;;;;;;;;21.10;71.30;;;;;;5032190;28;1269;-73
2021/08/23 00:11:49;;;;;;;;;;;21.10;71.30;;;;;;5011037;28;1906;-73
2021/08/23 00:14:14;;;;;;;;;;;21.10;71.30;;;;;;5023944;28;1364;-73
2021/08/23 00:16:39;;;;;;;;;;;21.00;71.20;;;;;;5032408;28;1358;-72
2021/08/23 00:19:05;;;;;;;;;;;21.00;71.20;;;;;;5031137;28;1356;-73
2021/08/23 00:21:40;;;;;;;;;;;21.10;71.30;;;;;;5031229;28;1329;-73
2021/08/23 00:24:06;;;;;;;;;;;21.00;71.30;;;;;;5032062;28;1389;-73
2021/08/23 00:26:32;;;;;;;;;;;21.10;71.40;;;;;;5030699;28;1345;-73
2021/08/23 00:28:57;;;;;;;;;;;21.00;71.30;;;;;;5032460;28;1435;-72
2021/08/23 00:31:23;;;;;;;;;;;21.10;71.30;;;;;;5039526;28;1914;-73
2021/08/23 00:33:48;;;;;;;;;;;21.10;71.30;;;;;;5030562;28;1277;-73
2021/08/23 00:36:14;;;;;;;;;;;21.00;71.20;;;;;;5030332;28;1377;-73
2021/08/23 00:38:39;;;;;;;;;;;21.00;71.30;;;;;;5031353;28;1143;-73
2021/08/23 00:41:05;;;;;;;;;;;21.00;71.30;;;;;;5035294;28;1350;-71
2021/08/23 00:43:30;;;;;;;;;;;21.10;71.30;;;;;;5038164;28;1358;-74
2021/08/23 00:45:56;;;;;;;;;;;21.10;71.40;;;;;;5034561;28;1367;-74
2021/08/23 00:48:21;;;;;;;;;;;21.00;71.20;;;;;;5034929;28;1446;-73
2021/08/23 00:50:47;;;;;;;;;;;21.00;71.30;;;;;;5033166;28;1968;-74
2021/08/23 00:53:12;;;;;;;;;;;21.00;71.30;;;;;;5034037;28;1378;-73
2021/08/23 00:55:38;;;;;;;;;;;21.10;71.40;;;;;;5032495;28;1380;-71
2021/08/23 00:58:03;;;;;;;;;;;21.00;71.30;;;;;;5034004;28;1352;-71
2021/08/23 01:00:29;;;;;;;;;;;21.00;71.30;;;;;;5035792;28;1383;-72
2021/08/23 01:03:01;;;;;;;;;;;21.10;71.40;;;;;;5031599;28;1328;-72
2021/08/23 01:05:27;;;;;;;;;;;21.10;71.40;;;;;;5034738;28;1215;-73
2021/08/23 01:08:13;;;;;;;;;;;21.10;71.40;;;;;;5035375;28;1348;-72
2021/08/23 01:10:45;;;;;;;;;;;21.10;71.40;;;;;;5029524;28;1886;-72
2021/08/23 01:13:11;;;;;;;;;;;21.00;71.30;;;;;;5026203;28;1373;-72
2021/08/23 01:15:36;;;;;;;;;;;21.10;71.40;;;;;;5034888;28;1371;-73
2021/08/23 01:18:02;;;;;;;;;;;21.00;71.30;;;;;;5034963;28;1259;-72
2021/08/23 01:20:27;;;;;;;;;;;21.10;71.40;;;;;;5034179;28;1388;-72
2021/08/23 01:22:53;;;;;;;;;;;21.00;71.30;;;;;;5033817;28;1099;-72
2021/08/23 01:25:21;;;;;;;;;;;21.10;71.40;;;;;;5024758;28;1271;-72
2021/08/23 01:27:58;;;;;;;;;;;21.00;71.30;;;;;;5030224;28;1292;-72
2021/08/23 01:30:23;;;;;;;;;;;21.00;71.30;;;;;;5034027;28;1977;-72
2021/08/23 01:32:49;;;;;;;;;;;21.00;71.30;;;;;;5033997;28;1357;-72
2021/08/23 01:35:14;;;;;;;;;;;21.00;71.30;;;;;;5033406;28;1285;-72
2021/08/23 01:37:40;;;;;;;;;;;21.00;71.40;;;;;;5034993;28;1313;-72
2021/08/23 01:40:05;;;;;;;;;;;21.10;71.40;;;;;;5034942;28;1327;-72
2021/08/23 01:42:31;;;;;;;;;;;21.10;71.40;;;;;;5033762;28;1314;-72
2021/08/23 01:44:56;;;;;;;;;;;21.00;71.40;;;;;;5034481;28;1272;-72
2021/08/23 01:47:22;;;;;;;;;;;21.10;71.50;;;;;;5035081;28;1323;-72
2021/08/23 01:49:47;;;;;;;;;;;21.10;71.40;;;;;;5034244;28;1959;-72
2021/08/23 01:52:13;;;;;;;;;;;21.00;71.40;;;;;;5034743;28;1383;-72
2021/08/23 01:54:39;;;;;;;;;;;21.00;71.40;;;;;;5034360;28;1317;-72
2021/08/23 01:57:04;;;;;;;;;;;21.00;71.40;;;;;;5033564;28;1387;-72
2021/08/23 01:59:30;;;;;;;;;;;21.00;71.40;;;;;;5034736;28;1079;-72
2021/08/23 02:01:55;;;;;;;;;;;21.00;71.40;;;;;;5033395;28;1308;-72
2021/08/23 02:04:21;;;;;;;;;;;21.00;71.40;;;;;;5034103;28;1361;-72
2021/08/23 02:06:46;;;;;;;;;;;21.00;71.40;;;;;;5033251;28;1301;-71
2021/08/23 02:09:11;;;;;;;;;;;21.10;71.50;;;;;;5033340;28;1277;-73
2021/08/23 02:11:37;;;;;;;;;;;21.10;71.40;;;;;;5034378;28;1966;-73
2021/08/23 02:14:02;;;;;;;;;;;21.00;71.40;;;;;;5033842;28;1304;-73
2021/08/23 02:16:28;;;;;;;;;;;21.00;71.40;;;;;;5034444;28;1150;-73
2021/08/23 02:18:53;;;;;;;;;;;21.00;71.40;;;;;;5013493;28;1347;-73
2021/08/23 02:21:20;;;;;;;;;;;21.10;71.50;;;;;;5028779;28;1324;-73
2021/08/23 02:23:45;;;;;;;;;;;21.00;71.40;;;;;;5033717;28;1375;-73
2021/08/23 02:26:11;;;;;;;;;;;21.00;71.40;;;;;;5034186;28;1383;-73
2021/08/23 02:28:36;;;;;;;;;;;21.00;71.40;;;;;;5032958;28;1268;-73
2021/08/23 02:31:02;;;;;;;;;;;21.00;71.40;;;;;;5032827;28;1914;-73
2021/08/23 02:33:27;;;;;;;;;;;21.00;71.40;;;;;;5033601;28;1344;-73
2021/08/23 02:35:53;;;;;;;;;;;21.10;71.50;;;;;;5045081;28;1075;-74
2021/08/23 02:38:18;;;;;;;;;;;21.10;71.50;;;;;;5022742;28;1294;-74
2021/08/23 02:40:43;;;;;;;;;;;21.00;71.40;;;;;;5033824;28;1519;-73
2021/08/23 02:43:09;;;;;;;;;;;21.00;71.50;;;;;;5032343;28;1381;-74
2021/08/23 02:45:34;;;;;;;;;;;21.10;71.50;;;;;;5034170;28;1206;-74
2021/08/23 02:48:00;;;;;;;;;;;21.00;71.50;;;;;;5033790;28;1220;-74
2021/08/23 02:50:25;;;;;;;;;;;21.00;71.50;;;;;;5033506;28;1977;-73
2021/08/23 02:52:51;;;;;;;;;;;21.00;71.40;;;;;;5042491;28;1115;-73
2021/08/23 02:55:16;;;;;;;;;;;21.00;71.50;;;;;;5029358;28;1296;-73
2021/08/23 02:57:41;;;;;;;;;;;21.00;71.50;;;;;;5033643;28;1347;-73
2021/08/23 03:00:07;;;;;;;;;;;21.00;71.50;;;;;;5033376;28;1313;-74
2021/08/23 03:02:33;;;;;;;;;;;21.10;71.60;;;;;;5031614;28;1357;-74
2021/08/23 03:04:58;;;;;;;;;;;21.10;71.60;;;;;;5031564;28;1360;-74
2021/08/23 03:07:24;;;;;;;;;;;21.00;71.50;;;;;;5032181;28;1071;-74
2021/08/23 03:09:49;;;;;;;;;;;21.10;71.50;;;;;;5031920;28;1898;-74
2021/08/23 03:12:15;;;;;;;;;;;21.00;71.50;;;;;;5033376;28;1281;-73
2021/08/23 03:14:41;;;;;;;;;;;21.00;71.50;;;;;;5031665;28;1292;-73
2021/08/23 03:17:06;;;;;;;;;;;21.00;71.50;;;;;;5032074;28;1281;-74
2021/08/23 03:19:31;;;;;;;;;;;21.10;71.60;;;;;;5032010;28;1379;-73
2021/08/23 03:21:57;;;;;;;;;;;21.00;71.50;;;;;;5033163;28;1243;-73
2021/08/23 03:24:22;;;;;;;;;;;21.00;71.50;;;;;;5032890;28;1385;-73
2021/08/23 03:26:48;;;;;;;;;;;21.00;71.60;;;;;;5033086;28;1263;-74
2021/08/23 03:29:13;;;;;;;;;;;21.00;71.50;;;;;;5032899;28;1312;-72
2021/08/23 03:31:39;;;;;;;;;;;21.00;71.50;;;;;;5033056;28;1894;-73
2021/08/23 03:34:08;;;;;;;;;;;21.00;71.50;;;;;;5032416;28;1369;-73
2021/08/23 03:36:34;;;;;;;;;;;21.00;71.50;;;;;;5032914;28;1364;-74
2021/08/23 03:38:59;;;;;;;;;;;21.00;71.50;;;;;;5033080;28;1345;-73
2021/08/23 03:41:24;;;;;;;;;;;21.00;71.50;;;;;;5032928;28;1510;-73
2021/08/23 03:43:50;;;;;;;;;;;21.10;71.60;;;;;;5031060;28;1367;-72
2021/08/23 03:46:15;;;;;;;;;;;21.00;71.50;;;;;;5032983;28;1298;-72
2021/08/23 03:48:41;;;;;;;;;;;21.00;71.50;;;;;;5032592;28;1352;-72
2021/08/23 03:51:06;;;;;;;;;;;21.00;71.50;;;;;;5032668;28;1906;-72
2021/08/23 03:53:31;;;;;;;;;;;21.00;71.60;;;;;;5032060;28;1410;-73
2021/08/23 03:55:57;;;;;;;;;;;21.10;71.60;;;;;;5032895;28;1146;-74
2021/08/23 03:58:22;;;;;;;;;;;21.10;71.60;;;;;;5032645;28;1359;-73
2021/08/23 04:00:48;;;;;;;;;;;21.00;71.60;;;;;;5033243;28;1294;-74
2021/08/23 04:03:13;;;;;;;;;;;21.00;71.60;;;;;;5032085;28;1383;-73
2021/08/23 04:05:39;;;;;;;;;;;21.00;71.60;;;;;;5032477;28;1270;-73
2021/08/23 04:08:04;;;;;;;;;;;21.00;71.60;;;;;;5032616;28;1328;-73
2021/08/23 04:10:29;;;;;;;;;;;21.10;71.60;;;;;;5032939;28;2027;-73
2021/08/23 04:12:55;;;;;;;;;;;21.00;71.60;;;;;;5032125;28;1300;-73
2021/08/23 04:15:20;;;;;;;;;;;21.00;71.60;;;;;;5036118;28;1288;-73
2021/08/23 04:17:46;;;;;;;;;;;21.00;71.60;;;;;;5036647;28;1313;-72
2021/08/23 04:20:12;;;;;;;;;;;21.00;71.60;;;;;;5036404;28;1386;-72
2021/08/23 04:22:38;;;;;;;;;;;21.00;71.60;;;;;;5035259;28;1366;-72
2021/08/23 04:25:03;;;;;;;;;;;21.00;71.60;;;;;;5036066;28;1317;-72
2021/08/23 04:27:29;;;;;;;;;;;21.00;71.60;;;;;;5036435;28;1376;-72
2021/08/23 04:29:54;;;;;;;;;;;21.10;71.70;;;;;;5036133;28;1902;-72
2021/08/23 04:32:20;;;;;;;;;;;21.00;71.60;;;;;;5036192;28;1360;-71
2021/08/23 04:34:45;;;;;;;;;;;21.00;71.70;;;;;;5035840;28;1328;-72
2021/08/23 04:37:11;;;;;;;;;;;21.00;71.70;;;;;;5036192;28;1358;-72
2021/08/23 04:39:36;;;;;;;;;;;21.00;71.60;;;;;;5036131;28;1344;-72
2021/08/23 04:42:01;;;;;;;;;;;21.00;71.60;;;;;;5036089;28;1274;-72
2021/08/23 04:44:27;;;;;;;;;;;21.00;71.60;;;;;;5034523;28;1304;-72
2021/08/23 04:46:52;;;;;;;;;;;21.10;71.70;;;;;;5034865;28;1270;-73
2021/08/23 04:49:18;;;;;;;;;;;21.00;71.70;;;;;;5034647;28;1296;-72
2021/08/23 04:51:43;;;;;;;;;;;21.00;71.70;;;;;;5036033;28;1969;-72
2021/08/23 04:54:09;;;;;;;;;;;21.00;71.70;;;;;;5035513;28;1361;-71
2021/08/23 04:56:34;;;;;;;;;;;21.00;71.60;;;;;;5035806;28;1205;-71
2021/08/23 04:58:59;;;;;;;;;;;21.00;71.60;;;;;;5035703;28;1338;-71
2021/08/23 05:01:25;;;;;;;;;;;21.00;71.70;;;;;;5034543;28;1361;-71
2021/08/23 05:03:50;;;;;;;;;;;21.00;71.70;;;;;;5035154;28;1374;-71
2021/08/23 05:06:16;;;;;;;;;;;21.00;72.00;;;;;;5035654;28;1270;-72
2021/08/23 05:08:41;;;;;;;;;;;21.00;72.40;;;;;;5029313;28;1927;-71
2021/08/23 05:11:07;;;;;;;;;;;21.10;72.70;;;;;;5035056;28;1968;-71
2021/08/23 05:13:32;;;;;;;;;;;21.10;72.80;;;;;;5034513;28;1385;-72
2021/08/23 05:15:58;;;;;;;;;;;21.10;72.70;;;;;;5030809;28;2226;-72
2021/08/23 05:18:23;;;;;;;;;;;21.10;72.80;;;;;;5034987;28;1345;-71
2021/08/23 05:20:49;;;;;;;;;;;21.10;72.90;;;;;;5035319;28;1205;-71
2021/08/23 05:23:14;;;;;;;;;;;21.00;72.90;;;;;;5033699;28;1580;-71
2021/08/23 05:25:39;;;;;;;;;;;21.00;72.90;;;;;;5034597;28;1286;-70
2021/08/23 05:28:05;;;;;;;;;;;21.10;72.90;;;;;;5035219;28;1497;-70
2021/08/23 05:30:30;;;;;;;;;;;21.00;72.90;;;;;;5035187;28;1914;-70
2021/08/23 05:32:56;;;;;;;;;;;21.00;72.90;;;;;;5034934;28;1294;-70
2021/08/23 05:35:21;;;;;;;;;;;21.10;73.00;;;;;;5033486;28;1318;-71
2021/08/23 05:37:48;;;;;;;;;;;21.10;72.90;;;;;;5033909;28;1542;-71
2021/08/23 05:40:14;;;;;;;;;;;21.10;72.90;;;;;;5034967;28;1253;-70
2021/08/23 05:42:39;;;;;;;;;;;21.00;72.80;;;;;;5035007;28;1306;-71
2021/08/23 05:45:05;;;;;;;;;;;21.00;72.80;;;;;;5034581;28;1348;-73
2021/08/23 05:47:30;;;;;;;;;;;21.00;72.70;;;;;;5033530;28;1295;-73
2021/08/23 05:49:56;;;;;;;;;;;21.10;72.70;;;;;;5033613;28;1914;-73
2021/08/23 05:52:21;;;;;;;;;;;21.10;72.80;;;;;;5033642;28;1358;-71
2021/08/23 05:54:47;;;;;;;;;;;21.10;72.70;;;;;;5034458;28;1357;-71
2021/08/23 05:57:12;;;;;;;;;;;21.10;72.80;;;;;;5034795;28;1313;-72
2021/08/23 05:59:38;;;;;;;;;;;21.10;72.80;;;;;;5033516;28;1277;-72
2021/08/23 06:02:03;;;;;;;;;;;21.00;72.70;;;;;;5033205;28;1287;-73
2021/08/23 06:04:28;;;;;;;;;;;21.00;72.60;;;;;;5034309;28;1354;-73
2021/08/23 06:06:54;;;;;;;;;;;21.10;72.80;;;;;;5033545;28;1329;-73
2021/08/23 06:09:20;;;;;;;;;;;21.10;72.80;;;;;;5034229;28;1310;-73
2021/08/23 06:11:45;;;;;;;;;;;21.00;72.70;;;;;;5034575;28;1940;-73
2021/08/23 06:14:10;;;;;;;;;;;21.10;72.70;;;;;;5034427;28;1329;-70
2021/08/23 06:16:36;;;;;;;;;;;21.10;72.70;;;;;;5032903;28;1325;-71
2021/08/23 06:19:01;;;;;;;;;;;21.10;72.70;;;;;;5034296;28;1316;-71
2021/08/23 06:21:27;;;;;;;;;;;21.00;72.70;;;;;;5034245;28;1354;-71
2021/08/23 06:23:52;;;;;;;;;;;21.10;72.70;;;;;;5033710;28;1301;-70
2021/08/23 06:26:18;;;;;;;;;;;21.00;72.70;;;;;;5034029;28;1256;-71
2021/08/23 06:28:43;;;;;;;;;;;21.10;72.70;;;;;;5034116;28;1280;-72
2021/08/23 06:31:09;;;;;;;;;;;21.10;72.70;;;;;;5045920;28;1902;-73
2021/08/23 06:33:34;;;;;;;;;;;21.10;72.80;;;;;;5033494;28;1398;-72
2021/08/23 06:36:00;;;;;;;;;;;21.10;72.70;;;;;;5041553;28;1716;-72
2021/08/23 06:38:25;;;;;;;;;;;21.10;72.70;;;;;;5024156;28;1309;-72
2021/08/23 06:40:50;;;;;;;;;;;21.10;72.70;;;;;;5033633;28;1305;-72
2021/08/23 06:43:16;;;;;;;;;;;21.10;72.80;;;;;;5023157;28;1351;-72
2021/08/23 06:45:42;;;;;;;;;;;21.10;72.70;;;;;;5030627;28;1255;-72
2021/08/23 06:48:07;;;;;;;;;;;21.10;72.80;;;;;;5044295;28;1063;-73
2021/08/23 06:50:33;;;;;;;;;;;21.10;72.80;;;;;;5036378;28;1895;-73
2021/08/23 06:52:58;;;;;;;;;;;21.00;72.70;;;;;;5043525;28;1075;-70
2021/08/23 06:55:24;;;;;;;;;;;21.10;72.80;;;;;;5028919;28;1417;-70
2021/08/23 06:57:49;;;;;;;;;;;21.10;72.70;;;;;;5043013;28;1071;-72
2021/08/23 07:00:15;;;;;;;;;;;21.10;72.70;;;;;;5020947;28;1298;-72
2021/08/23 07:02:41;;;;;;;;;;;21.10;72.70;;;;;;5031498;28;1091;-72
2021/08/23 07:05:07;;;;;;;;;;;21.10;72.70;;;;;;5027811;28;1966;-72
2021/08/23 07:07:33;;;;;;;;;;;21.10;72.70;;;;;;5041392;28;1109;-72
2021/08/23 07:09:58;;;;;;;;;;;21.10;72.60;;;;;;5035694;28;1961;-72
2021/08/23 07:12:23;;;;;;;;;;;21.10;72.70;;;;;;5042757;28;1158;-72
2021/08/23 07:14:49;;;;;;;;;;;21.10;72.70;;;;;;5023353;28;1351;-72
2021/08/23 07:17:14;;;;;;;;;;;21.10;72.60;;;;;;5026858;28;1214;-72
2021/08/23 07:19:40;;;;;;;;;;;21.10;72.60;;;;;;5035083;28;1252;-73
2021/08/23 07:22:05;;;;;;;;;;;21.10;72.60;;;;;;5044310;28;1145;-72
2021/08/23 07:24:31;;;;;;;;;;;21.10;72.60;;;;;;5032867;28;1351;-71
2021/08/23 07:26:56;;;;;;;;;;;21.10;72.60;;;;;;5033105;28;1396;-71
2021/08/23 07:29:22;;;;;;;;;;;21.10;72.60;;;;;;5031439;28;1336;-72
2021/08/23 07:31:48;;;;;;;;;;;21.10;73.40;;;;;;5033123;28;1962;-72
2021/08/23 07:34:13;;;;;;;;;;;21.10;72.80;;;;;;5045913;28;1362;-72
2021/08/23 07:36:39;;;;;;;;;;;21.10;72.70;;;;;;5032992;28;1320;-73
2021/08/23 07:39:04;;;;;;;;;;;21.10;72.80;;;;;;5044648;28;1137;-72
2021/08/23 07:41:30;;;;;;;;;;;21.10;72.70;;;;;;5021690;28;1260;-72
2021/08/23 07:43:55;;;;;;;;;;;21.00;72.60;;;;;;5045691;28;1248;-73
2021/08/23 07:46:20;;;;;;;;;;;21.10;72.60;;;;;;5039544;28;1091;-72
2021/08/23 07:48:46;;;;;;;;;;;21.10;72.60;;;;;;5023970;28;1337;-72
2021/08/23 07:51:11;;;;;;;;;;;21.10;72.70;;;;;;5032749;28;1957;-72
2021/08/23 07:53:40;;;;;;;;;;;21.10;72.70;;;;;;5031044;28;1308;-72
2021/08/23 07:56:05;;;;;;;;;;;21.10;72.70;;;;;;5040392;28;1072;-72
2021/08/23 07:58:31;;;;;;;;;;;21.10;72.70;;;;;;5039601;28;1062;-72
2021/08/23 08:00:56;;;;;;;;;;;21.10;72.80;;;;;;5035796;28;1443;-70
2021/08/23 08:03:21;;;;;;;;;;;21.10;72.70;;;;;;5027570;28;1296;-71
2021/08/23 08:05:47;;;;;;;;;;;21.10;72.80;;;;;;5032712;28;1256;-70
2021/08/23 08:08:12;;;;;;;;;;;21.10;72.90;;;;;;5034604;28;1016;-71
2021/08/23 08:10:38;;;;;;;;;;;21.10;72.90;;;;;;5044043;28;1906;-72
2021/08/23 08:13:04;;;;;;;;;;;21.10;72.90;;;;;;5032185;28;1723;-71
2021/08/23 08:15:29;;;;;;;;;;;21.10;73.00;;;;;;5030955;28;1385;-72
2021/08/23 08:17:54;;;;;;;;;;;21.10;73.10;;;;;;5032970;28;1409;-72
2021/08/23 08:20:20;;;;;;;;;;;21.10;73.10;;;;;;5034959;28;1063;-72
2021/08/23 08:22:45;;;;;;;;;;;21.10;73.20;;;;;;5027442;28;1313;-72
2021/08/23 08:25:11;;;;;;;;;;;21.10;73.30;;;;;;5030736;28;1294;-72
2021/08/23 08:27:36;;;;;;;;;;;21.10;73.20;;;;;;5043623;28;1180;-72
2021/08/23 08:30:03;;;;;;;;;;;21.10;73.30;;;;;;5030988;28;1981;-71
2021/08/23 08:32:28;;;;;;;;;;;21.10;73.40;;;;;;5031450;28;1375;-70
2021/08/23 08:34:54;;;;;;;;;;;21.10;73.40;;;;;;5030556;28;1279;-71
2021/08/23 08:37:20;;;;;;;;;;;21.10;73.50;;;;;;5031103;28;1309;-71
2021/08/23 08:39:45;;;;;;;;;;;21.10;73.50;;;;;;5039357;28;1059;-73
2021/08/23 08:42:10;;;;;;;;;;;21.10;73.50;;;;;;5025394;28;1259;-73
2021/08/23 08:44:36;;;;;;;;;;;21.10;73.60;;;;;;5018730;28;1299;-71
2021/08/23 08:47:02;;;;;;;;;;;21.20;73.70;;;;;;5045397;28;1083;-71
2021/08/23 08:49:27;;;;;;;;;;;21.10;73.60;;;;;;5019001;28;1463;-71
2021/08/23 08:51:53;;;;;;;;;;;21.10;73.60;;;;;;5033203;28;1902;-72
2021/08/23 08:54:18;;;;;;;;;;;21.20;73.70;;;;;;5042881;28;1223;-72
2021/08/23 08:56:44;;;;;;;;;;;21.10;73.60;;;;;;5032136;28;1218;-72
2021/08/23 08:59:09;;;;;;;;;;;21.10;73.70;;;;;;5031923;28;1328;-72
2021/08/23 09:01:34;;;;;;;;;;;21.10;73.70;;;;;;5047411;28;1132;-72
2021/08/23 09:04:00;;;;;;;;;;;21.20;73.70;;;;;;5035397;28;1229;-73
2021/08/23 09:06:26;;;;;;;;;;;21.10;73.60;;;;;;5034814;28;2005;-73
2021/08/23 09:08:51;;;;;;;;;;;21.10;73.70;;;;;;5022072;28;1952;-72
2021/08/23 09:11:17;;;;;;;;;;;21.20;73.90;;;;;;5029278;28;1951;-72
2021/08/23 09:13:59;;;;;;;;;;;21.10;74.00;;;;;;5031408;28;1263;-73
2021/08/23 09:16:25;;;;;;;;;;;21.20;74.00;;;;;;5037205;28;1352;-73
2021/08/23 09:18:50;;;;;;;;;;;21.10;74.10;;;;;;5047603;28;1157;-73
2021/08/23 09:21:16;;;;;;;;;;;21.20;74.30;;;;;;5024707;28;1310;-72
2021/08/23 09:23:42;;;;;;;;;;;21.10;74.40;;;;;;5037808;28;1288;-73
2021/08/23 09:26:11;;;;;;;;;;;21.10;74.50;;;;;;5047063;28;1000;-74
2021/08/23 09:28:38;;;;;;;;;;;21.10;74.60;;;;;;5035256;28;1111;-74
2021/08/23 09:31:03;;;;;;;;;;;21.10;74.90;;;;;;5046854;28;1975;-74
2021/08/23 09:33:29;;;;;;;;;;;21.10;75.00;;;;;;5026352;28;1522;-72
2021/08/23 09:35:54;;;;;;;;;;;21.20;75.10;;;;;;5038168;28;1094;-73
2021/08/23 09:38:19;;;;;;;;;;;21.20;75.50;;;;;;5023639;28;888;-73
2021/08/23 09:40:46;;;;;;;;;;;21.20;75.70;;;;;;5039979;28;1295;-73
2021/08/23 09:43:13;;;;;;;;;;;21.20;75.80;;;;;;5033939;28;1200;-74
2021/08/23 09:45:44;;;;;;;;;;;21.20;76.30;;;;;;5019704;28;1154;-73
2021/08/23 09:48:09;;;;;;;;;;;21.20;76.30;;;;;;5024394;28;1285;-73
2021/08/23 09:50:38;;;;;;;;;;;21.20;76.60;;;;;;5034592;28;1898;-73
2021/08/23 09:53:07;;;;;;;;;;;21.20;76.20;;;;;;5034016;28;1369;-74
2021/08/23 09:55:33;;;;;;;;;;;21.20;76.20;;;;;;5034569;28;1784;-73
2021/08/23 09:57:58;;;;;;;;;;;21.20;76.10;;;;;;5032951;28;1071;-72
2021/08/23 10:00:24;;;;;;;;;;;21.20;76.10;;;;;;5036478;28;1154;-72
2021/08/23 10:02:49;;;;;;;;;;;21.20;76.10;;;;;;5034287;28;1123;-73
2021/08/23 10:05:15;;;;;;;;;;;21.20;76.10;;;;;;5033637;28;1263;-73
2021/08/23 10:07:41;;;;;;;;;;;21.10;76.00;;;;;;5030871;28;1269;-73
2021/08/23 10:10:06;;;;;;;;;;;21.20;76.10;;;;;;5038448;28;1909;-73
2021/08/23 10:12:32;;;;;;;;;;;21.20;76.10;;;;;;5034016;28;1566;-73
2021/08/23 10:14:57;;;;;;;;;;;21.10;76.10;;;;;;5027979;28;1845;-73
2021/08/23 10:17:22;;;;;;;;;;;21.10;76.30;;;;;;5032468;28;1400;-73
2021/08/23 10:19:48;;;;;;;;;;;21.20;76.40;;;;;;5033717;28;1147;-72
2021/08/23 10:22:13;;;;;;;;;;;21.20;76.20;;;;;;5032281;28;1397;-72
2021/08/23 10:24:39;;;;;;;;;;;21.20;75.80;;;;;;5027298;28;1901;-73
2021/08/23 10:27:05;;;;;;;;;;;21.10;75.70;;;;;;5038974;28;1306;-72
2021/08/23 10:29:37;;;;;;;;;;;21.10;75.60;;;;;;5035455;28;1182;-72
2021/08/23 10:32:06;;;;;;;;;;;21.10;74.70;;;;;;5033241;28;1973;-72
2021/08/23 10:34:31;;;;;;;;;;;21.10;75.40;;;;;;5030220;28;1362;-71
2021/08/23 10:36:56;;;;;;;;;;;21.20;74.80;;;;;;5033831;28;1168;-71
2021/08/23 10:39:22;;;;;;;;;;;21.10;74.10;;;;;;5033234;28;1068;-70
2021/08/23 10:41:51;;;;;;;;;;;21.10;73.70;;;;;;5044832;28;1079;-71
2021/08/23 10:44:24;;;;;;;;;;;21.10;73.40;;;;;;5015149;28;1285;-71
2021/08/23 10:46:49;;;;;;;;;;;21.20;73.40;;;;;;5024565;28;1118;-70
2021/08/23 10:49:15;;;;;;;;;;;21.10;73.30;;;;;;5033253;28;1316;-71
2021/08/23 10:51:41;;;;;;;;;;;21.10;73.40;;;;;;5031955;28;1955;-71
2021/08/23 10:54:25;;;;;;;;;;;21.10;73.50;;;;;;5039267;28;1333;-71
2021/08/23 10:57:11;;;;;;;;;;;21.10;72.80;;;;;;5038981;28;1186;-72
2021/08/23 10:59:37;;;;;;;;;;;21.10;72.20;;;;;;5024712;28;1210;-71
2021/08/23 11:02:03;;;;;;;;;;;21.10;71.90;;;;;;5041283;28;1070;-72
2021/08/23 11:04:29;;;;;;;;;;;21.10;71.90;;;;;;5024504;28;1200;-71
2021/08/23 11:06:54;;;;;;;;;;;21.10;71.90;;;;;;5031744;28;1270;-72
2021/08/23 11:09:20;;;;;;;;;;;21.10;73.00;;;;;;5032969;28;1273;-70
2021/08/23 11:11:45;;;;;;;;;;;21.10;71.30;;;;;;5031393;28;1898;-72
2021/08/23 11:14:17;;;;;;;;;;;21.10;70.80;;;;;;5031268;28;1462;-72
2021/08/23 11:16:49;;;;;;;;;;;21.10;70.00;;;;;;5031446;28;1095;-73
2021/08/23 11:19:14;;;;;;;;;;;21.10;70.30;;;;;;5031691;28;1255;-72
2021/08/23 11:21:46;;;;;;;;;;;21.10;69.80;;;;;;5031819;28;1241;-72
2021/08/23 11:24:11;;;;;;;;;;;21.10;70.00;;;;;;5031644;28;1274;-72
2021/08/23 11:26:37;;;;;;;;;;;21.10;70.10;;;;;;5032735;28;1337;-71
2021/08/23 11:29:07;;;;;;;;;;;21.10;69.60;;;;;;5031108;28;1323;-73
2021/08/23 11:31:32;;;;;;;;;;;21.10;71.00;;;;;;5032668;28;1910;-72
2021/08/23 11:33:57;;;;;;;;;;;21.10;70.80;;;;;;5030927;28;1362;-72
2021/08/23 11:36:23;;;;;;;;;;;21.10;70.00;;;;;;5031290;28;1405;-71
2021/08/23 11:38:48;;;;;;;;;;;21.10;70.20;;;;;;5032676;28;1276;-72
2021/08/23 11:41:14;;;;;;;;;;;21.10;69.70;;;;;;5032201;28;1487;-72
2021/08/23 11:43:39;;;;;;;;;;;21.10;69.70;;;;;;5032227;28;1348;-72
2021/08/23 11:46:05;;;;;;;;;;;21.10;69.80;;;;;;5031457;28;1436;-71
2021/08/23 11:48:30;;;;;;;;;;;21.10;69.90;;;;;;5031635;28;1091;-72
2021/08/23 11:50:56;;;;;;;;;;;21.10;70.00;;;;;;5031412;28;1957;-71
2021/08/23 11:53:27;;;;;;;;;;;21.10;70.10;;;;;;5032462;28;1372;-71
2021/08/23 11:56:01;;;;;;;;;;;21.10;70.20;;;;;;5032618;28;1087;-71
2021/08/23 11:58:34;;;;;;;;;;;21.10;70.30;;;;;;5032734;28;1376;-72
2021/08/23 12:01:01;;;;;;;;;;;21.10;70.40;;;;;;5011526;28;1341;-70
2021/08/23 12:03:26;;;;;;;;;;;21.10;70.40;;;;;;5031937;28;1357;-71
2021/08/23 12:05:52;;;;;;;;;;;21.10;70.80;;;;;;5033426;28;1304;-71
2021/08/23 12:08:20;;;;;;;;;;;21.10;71.20;;;;;;5027422;28;1356;-72
2021/08/23 12:10:49;;;;;;;;;;;21.10;71.30;;;;;;5032562;28;1906;-71
2021/08/23 12:13:15;;;;;;;;;;;21.10;71.40;;;;;;5030936;28;1336;-71
2021/08/23 12:15:57;;;;;;;;;;;21.10;71.50;;;;;;5031900;28;1412;-71
2021/08/23 12:18:35;;;;;;;;;;;21.10;71.70;;;;;;5032490;28;1206;-71
2021/08/23 12:21:01;;;;;;;;;;;21.10;71.90;;;;;;5031014;28;1446;-71
2021/08/23 12:23:27;;;;;;;;;;;21.10;72.20;;;;;;5030817;28;1303;-70
2021/08/23 12:25:53;;;;;;;;;;;21.10;72.60;;;;;;5031129;28;1281;-71
2021/08/23 12:28:19;;;;;;;;;;;21.10;72.80;;;;;;5031295;28;1332;-70
2021/08/23 12:30:44;;;;;;;;;;;21.20;72.80;;;;;;5032568;28;1898;-71
2021/08/23 12:33:16;;;;;;;;;;;21.20;73.30;;;;;;5035949;28;1366;-70
2021/08/23 12:35:43;;;;;;;;;;;21.10;73.40;;;;;;5029743;28;1064;-72
2021/08/23 12:38:08;;;;;;;;;;;21.10;73.40;;;;;;5036109;28;1355;-71
2021/08/23 12:40:34;;;;;;;;;;;21.10;73.60;;;;;;5035903;28;1385;-72
2021/08/23 12:42:59;;;;;;;;;;;21.20;73.70;;;;;;5036122;28;1336;-71
2021/08/23 12:45:25;;;;;;;;;;;21.20;73.40;;;;;;5035666;28;1220;-71
2021/08/23 12:47:52;;;;;;;;;;;21.20;73.10;;;;;;5036123;28;1047;-72
2021/08/23 12:50:17;;;;;;;;;;;21.20;73.10;;;;;;5035462;28;1973;-71
2021/08/23 12:52:43;;;;;;;;;;;21.20;73.00;;;;;;5014851;28;1271;-71
2021/08/23 12:55:08;;;;;;;;;;;21.20;72.80;;;;;;5029867;28;1189;-72
2021/08/23 12:57:34;;;;;;;;;;;21.20;72.70;;;;;;5014709;28;1279;-71
2021/08/23 12:59:59;;;;;;;;;;;21.20;72.60;;;;;;5029856;28;1270;-71
2021/08/23 13:02:24;;;;;;;;;;;21.20;72.50;;;;;;5035702;28;1293;-71
2021/08/23 13:04:50;;;;;;;;;;;21.20;72.60;;;;;;5047490;28;1204;-70
2021/08/23 13:07:15;;;;;;;;;;;21.20;72.70;;;;;;5019828;28;1098;-72
2021/08/23 13:09:41;;;;;;;;;;;21.20;72.50;;;;;;5013998;28;1284;-71
2021/08/23 13:12:06;;;;;;;;;;;21.20;72.90;;;;;;5015711;28;1953;-69
2021/08/23 13:14:32;;;;;;;;;;;21.20;73.40;;;;;;5028817;28;1297;-69
2021/08/23 13:16:57;;;;;;;;;;;21.20;73.40;;;;;;5034260;28;1107;-71
2021/08/23 13:19:23;;;;;;;;;;;21.20;73.60;;;;;;5033078;28;1313;-70
2021/08/23 13:21:48;;;;;;;;;;;21.20;73.70;;;;;;5042015;28;1099;-70
2021/08/23 13:24:14;;;;;;;;;;;21.20;74.40;;;;;;5028055;28;1335;-72
2021/08/23 13:26:39;;;;;;;;;;;21.20;74.40;;;;;;5001320;28;1201;-71
2021/08/23 13:29:05;;;;;;;;;;;21.20;74.50;;;;;;5028587;28;1281;-71
2021/08/23 13:31:32;;;;;;;;;;;21.20;74.80;;;;;;5013977;28;1910;-71
2021/08/23 13:33:57;;;;;;;;;;;21.20;74.70;;;;;;5026785;28;1343;-72
2021/08/23 13:36:23;;;;;;;;;;;21.20;75.00;;;;;;5033944;28;1335;-71
2021/08/23 13:38:48;;;;;;;;;;;21.20;75.10;;;;;;5035213;28;1287;-72
2021/08/23 13:41:14;;;;;;;;;;;21.20;75.20;;;;;;5041983;28;1379;-71
2021/08/23 13:43:39;;;;;;;;;;;21.20;75.00;;;;;;5026605;28;1333;-69
2021/08/23 13:46:04;;;;;;;;;;;21.20;74.80;;;;;;5033911;28;1339;-71
2021/08/23 13:48:30;;;;;;;;;;;21.20;74.70;;;;;;5034322;28;1291;-69
2021/08/23 13:51:00;;;;;;;;;;;21.20;74.60;;;;;;5034178;28;1898;-69
2021/08/23 13:53:26;;;;;;;;;;;21.20;74.40;;;;;;5033866;28;1282;-72
2021/08/23 13:55:51;;;;;;;;;;;21.20;72.40;;;;;;5036445;28;1235;-72
2021/08/23 13:58:17;;;;;;;;;;;21.20;70.30;;;;;;5016672;28;1391;-71
2021/08/23 14:00:42;;;;;;;;;;;21.20;70.80;;;;;;5035692;28;1296;-72
2021/08/23 14:03:08;;;;;;;;;;;21.20;69.70;;;;;;5034954;28;1481;-72
2021/08/23 14:05:33;;;;;;;;;;;21.10;70.50;;;;;;5022506;28;1744;-71
2021/08/23 14:07:58;;;;;;;;;;;21.10;70.00;;;;;;5023415;28;1171;-71
2021/08/23 14:10:24;;;;;;;;;;;21.10;70.00;;;;;;5040826;28;1906;-72
2021/08/23 14:12:49;;;;;;;;;;;21.10;69.70;;;;;;5025123;28;1281;-71
2021/08/23 14:15:15;;;;;;;;;;;21.10;70.90;;;;;;5032794;28;1431;-71
2021/08/23 14:17:40;;;;;;;;;;;21.10;70.20;;;;;;5033303;28;1281;-71
2021/08/23 14:20:06;;;;;;;;;;;21.20;69.50;;;;;;5033424;28;1098;-71
2021/08/23 14:22:32;;;;;;;;;;;21.10;71.10;;;;;;5033158;28;1259;-70
2021/08/23 14:24:57;;;;;;;;;;;21.10;71.40;;;;;;5031765;28;1316;-70